Etusivu
METAR-TAF:

METAR-TAF

Lentoasemat :

Gabès, Tunisia

Leveyspiiri: 33-53N, Pituuspiiri: 010-06E, korkeus merenpinnasta: 4 m

Tämänhetkinen sää

Tämä raportti tehtiin 2 tuntia ja 51 minuuttia sitten, kello 03.00 UTC
Tuuli 6 kn idästä
Lämpötila 13°C
Kosteus 94%
Ilmanpaine 1016 hPa
Näkyvyys: 3000 m
Hajanaisia pilviä 3000 ft:n korkeudessa
utua

METAR: DTTG 270300Z 10006KT 3000 BR SCT030 13/12 Q1016

Aika: 06:51 (05:51 UTC)

Sääennuste

Tämä raportti tehtiin 5 tuntia ja 51 minuuttia sitten, kello 00.00 UTC
Ennuste voimassa 27. päivästä klo 01 UTC - 27. päivään klo 10 UTC
Tuuli 5 kn idästä/kaakosta
Näkyvyys: 5000 m
Muutamia pilviä 3000 ft:n korkeudessa
Todennäköisyys 40% :
Ajoittain
27. päivästä klo 01 UTC - 27. päivään klo 07 UTC
Näkyvyys: 2000 m
utua
Todennäköisyys 30% :
Ajoittain
27. päivästä klo 04 UTC - 27. päivään klo 08 UTC
Näkyvyys: 0800 m
sumua

TAF: DTTG 270000Z 2701/2710 11005KT 5000 FEW030 PROB40 TEMPO 2701/2707 2000 BR PROB30 TEMPO 2704/2708 0800 FG

Säähavainnot ja -ennusteet yli 4000 lentoasemalta (METAR- ja TAF-raportit).

Käytössä olevat sääasemat on merkitty karttaan keltaisilla ja punaisilla pisteillä.

Aseta hiiri pisteen päälle nähdäksesi sääaseman nimen.

Klikkaa sitten nähdäksesi säähavainnot ja -ennusteet.

Kartan vaihtaminen: klikkaa mustalla rastilla varustettuja vihreitä pisteitä, niin voit zoomata sisään; viivalla varustettua vihreää pistettä, niin voit zoomata ulos tai vihreitä nuolia, niin pääset viereisille kartoille.


METAR-TAF: